createdAt,value
2022-10-04T00:02:28.110Z,99907.28
2022-10-04T00:05:03.350Z,99915.97
2022-10-04T00:07:35.586Z,99915.19
2022-10-04T00:10:08.211Z,99914.38
2022-10-04T00:12:39.985Z,99918.00
2022-10-04T00:15:21.588Z,99911.06
2022-10-04T00:18:06.139Z,99916.47
2022-10-04T00:21:04.443Z,99924.34
2022-10-04T00:23:47.270Z,99918.88
2022-10-04T00:26:57.970Z,99917.81
2022-10-04T00:29:32.804Z,99919.00
2022-10-04T00:32:28.580Z,99920.81
2022-10-04T00:34:57.846Z,99913.00
2022-10-04T00:37:27.780Z,99911.25
2022-10-04T00:40:12.021Z,99911.91
2022-10-04T00:42:58.862Z,99916.16
2022-10-04T00:45:33.762Z,99918.09
2022-10-04T00:48:31.902Z,99918.91
2022-10-04T00:51:06.115Z,99915.00
2022-10-04T00:53:42.983Z,99916.97
2022-10-04T00:56:15.615Z,99913.66
2022-10-04T00:58:52.012Z,99920.78
2022-10-04T01:01:25.225Z,99922.81
2022-10-04T01:04:02.582Z,99921.13
2022-10-04T01:06:35.007Z,99922.16
2022-10-04T01:09:12.818Z,99921.28
2022-10-04T01:11:46.204Z,99914.53
2022-10-04T01:14:21.746Z,99920.19
2022-10-04T01:16:49.889Z,99928.19
2022-10-04T01:19:31.644Z,99925.44
2022-10-04T01:22:10.869Z,99928.66
2022-10-04T01:24:43.825Z,99919.84
2022-10-04T01:27:35.210Z,99922.97
2022-10-04T01:30:07.656Z,99923.78
2022-10-04T01:32:40.551Z,99923.84
2022-10-04T01:35:09.795Z,99922.97
2022-10-04T01:37:39.456Z,99918.28
2022-10-04T01:40:11.192Z,99920.28
2022-10-04T01:42:46.474Z,99920.34
2022-10-04T01:45:22.666Z,99922.16
2022-10-04T01:47:55.368Z,99916.78
2022-10-04T01:50:30.324Z,99917.94
2022-10-04T01:53:07.888Z,99911.94
2022-10-04T01:55:41.300Z,99925.34
2022-10-04T01:58:12.338Z,99913.16
2022-10-04T02:00:44.494Z,99919.31
2022-10-04T02:03:17.920Z,99912.03
2022-10-04T02:05:52.727Z,99910.59
2022-10-04T02:08:27.750Z,99913.22
2022-10-04T02:10:58.104Z,99906.38
2022-10-04T02:13:30.115Z,99905.56
2022-10-04T02:15:59.543Z,99905.75
2022-10-04T02:18:29.943Z,99907.22
2022-10-04T02:21:01.093Z,99898.56
2022-10-04T02:23:30.291Z,99902.22
2022-10-04T02:25:59.763Z,99883.81
2022-10-04T02:28:27.917Z,99886.56
2022-10-04T02:31:14.031Z,99879.34
2022-10-04T02:33:43.838Z,99879.91
2022-10-04T02:36:13.273Z,99881.16
2022-10-04T02:38:45.204Z,99880.97
2022-10-04T02:41:22.494Z,99879.00
2022-10-04T02:43:56.265Z,99879.22
2022-10-04T02:46:29.433Z,99874.84
2022-10-04T02:49:00.329Z,99882.19
2022-10-04T02:51:35.298Z,99883.19
2022-10-04T02:54:07.244Z,99886.84
2022-10-04T02:56:38.407Z,99883.50
2022-10-04T02:59:08.033Z,99881.81
2022-10-04T03:01:48.762Z,99875.78
2022-10-04T03:04:21.136Z,99879.06
2022-10-04T03:06:49.316Z,99883.13
2022-10-04T03:09:18.931Z,99874.63
2022-10-04T03:11:53.006Z,99873.03
2022-10-04T03:14:23.504Z,99880.25
2022-10-04T03:16:54.216Z,99886.50
2022-10-04T03:19:25.086Z,99881.81
2022-10-04T03:21:57.178Z,99870.78
2022-10-04T03:24:35.758Z,99874.00
2022-10-04T03:27:09.336Z,99862.88
2022-10-04T03:29:44.328Z,99862.81
2022-10-04T03:32:15.960Z,99858.06
2022-10-04T03:34:51.875Z,99858.97
2022-10-04T03:37:21.635Z,99855.72
2022-10-04T03:39:53.391Z,99860.53
2022-10-04T03:42:25.647Z,99862.00
2022-10-04T03:44:56.884Z,99865.81
2022-10-04T03:47:28.652Z,99867.72
2022-10-04T03:49:59.939Z,99863.50
2022-10-04T03:52:35.604Z,99869.88
2022-10-04T03:55:08.161Z,99864.94
2022-10-04T03:57:39.493Z,99872.06
2022-10-04T04:00:08.294Z,99871.13
2022-10-04T04:02:46.052Z,99873.16
2022-10-04T04:05:24.225Z,99872.97
2022-10-04T04:08:01.259Z,99880.75
2022-10-04T04:10:32.788Z,99879.66
2022-10-04T04:13:14.793Z,99884.94
2022-10-04T04:15:45.618Z,99889.22
2022-10-04T04:18:18.413Z,99884.63
2022-10-04T04:20:47.857Z,99897.22
2022-10-04T04:23:24.518Z,99895.19
2022-10-04T04:25:56.800Z,99897.16
2022-10-04T04:28:34.149Z,99902.41
2022-10-04T04:31:06.862Z,99906.91
2022-10-04T04:33:44.084Z,99914.81
2022-10-04T04:36:15.471Z,99909.03
2022-10-04T04:38:57.713Z,99909.94
2022-10-04T04:41:28.155Z,99910.72
2022-10-04T04:43:57.504Z,99906.69
2022-10-04T04:46:30.197Z,99909.47
2022-10-04T04:49:02.662Z,99908.91
2022-10-04T04:51:33.430Z,99899.94
2022-10-04T04:54:07.504Z,99904.41
2022-10-04T04:56:36.054Z,99898.31
2022-10-04T04:59:08.863Z,99907.09
2022-10-04T05:01:43.291Z,99908.13
2022-10-04T05:04:21.301Z,99906.38
2022-10-04T05:06:59.904Z,99910.72
2022-10-04T05:09:31.540Z,99904.25
2022-10-04T05:12:07.855Z,99897.91
2022-10-04T05:14:40.247Z,99903.00
2022-10-04T05:17:09.152Z,99903.03
2022-10-04T05:19:41.057Z,99903.50
2022-10-04T05:22:11.647Z,99899.16
2022-10-04T05:24:43.127Z,99895.81
2022-10-04T05:27:17.925Z,99902.94
2022-10-04T05:29:58.976Z,99902.19
2022-10-04T05:32:37.553Z,99900.44
2022-10-04T05:35:16.673Z,99896.69
2022-10-04T05:38:04.479Z,99905.75
2022-10-04T05:40:41.711Z,99905.53
2022-10-04T05:43:26.798Z,99898.53
2022-10-04T05:46:30.448Z,99906.53
2022-10-04T05:49:06.272Z,99909.69
2022-10-04T05:51:38.241Z,99907.94
2022-10-04T05:54:09.167Z,99907.13
2022-10-04T05:57:12.974Z,99909.88
2022-10-04T05:59:59.442Z,99912.41
2022-10-04T06:02:48.440Z,99910.63
2022-10-04T06:05:25.669Z,99915.13
2022-10-04T06:08:03.361Z,99919.22
2022-10-04T06:10:50.306Z,99913.03
2022-10-04T06:13:39.883Z,99912.03
2022-10-04T06:16:21.202Z,99917.72
2022-10-04T06:19:26.639Z,99919.97
2022-10-04T06:22:27.767Z,99912.66
2022-10-04T06:25:26.305Z,99915.00
2022-10-04T06:28:05.830Z,99914.47
2022-10-04T06:30:52.484Z,99925.03
2022-10-04T06:33:35.372Z,99918.41
2022-10-04T06:36:38.752Z,99929.22
2022-10-04T06:39:29.441Z,99929.34
2022-10-04T06:42:17.402Z,99931.03
2022-10-04T06:45:08.523Z,99929.50
2022-10-04T06:48:03.760Z,99932.91
2022-10-04T06:50:40.118Z,99940.16
2022-10-04T06:53:25.795Z,99934.88
2022-10-04T06:56:35.083Z,99935.75
2022-10-04T06:59:29.830Z,99921.28
2022-10-04T07:02:00.187Z,99939.63
2022-10-04T07:04:56.149Z,99940.56
2022-10-04T07:07:36.462Z,99943.69
2022-10-04T07:10:41.949Z,99944.41
2022-10-04T07:13:20.726Z,99949.22
2022-10-04T07:15:56.852Z,99959.47
2022-10-04T07:18:29.114Z,99956.69
2022-10-04T07:21:04.811Z,99963.31
2022-10-04T07:23:39.094Z,99970.66
2022-10-04T07:26:20.986Z,99975.59
2022-10-04T07:29:08.568Z,99977.53
2022-10-04T07:31:38.294Z,99970.38
2022-10-04T07:34:12.622Z,99987.59
2022-10-04T07:36:47.086Z,99990.06
2022-10-04T07:39:17.737Z,99988.34
2022-10-04T07:41:53.046Z,99989.03
2022-10-04T07:44:31.390Z,99996.81
2022-10-04T07:47:03.943Z,99996.13
2022-10-04T07:49:38.823Z,100001.06
2022-10-04T07:52:30.422Z,99998.41
2022-10-04T07:55:08.357Z,100001.41
2022-10-04T07:57:49.089Z,100008.94
2022-10-04T08:00:21.965Z,100000.34
2022-10-04T08:03:04.764Z,99999.00
2022-10-04T08:05:38.603Z,100004.53
2022-10-04T08:08:27.067Z,99997.00
2022-10-04T08:11:09.327Z,99999.16
2022-10-04T08:13:49.505Z,99999.91
2022-10-04T08:16:31.209Z,100008.47
2022-10-04T08:19:20.164Z,100005.41
2022-10-04T08:21:58.717Z,100015.50
2022-10-04T08:24:35.231Z,100017.31
2022-10-04T08:27:24.560Z,100023.47
2022-10-04T08:30:12.299Z,100025.50
2022-10-04T08:32:56.510Z,100022.75
2022-10-04T08:35:37.703Z,100017.91
2022-10-04T08:38:26.392Z,100022.66
2022-10-04T08:41:24.264Z,100033.69
2022-10-04T08:44:25.617Z,100030.16
2022-10-04T08:47:24.582Z,100026.09
2022-10-04T08:50:14.279Z,100041.97
2022-10-04T08:53:28.403Z,100035.28
2022-10-04T08:56:11.454Z,100035.56
2022-10-04T08:59:19.589Z,100030.47
2022-10-04T09:02:01.455Z,100032.47
2022-10-04T09:05:03.496Z,100035.94
2022-10-04T09:08:15.872Z,100038.78
2022-10-04T09:11:05.701Z,100036.97
2022-10-04T09:14:08.364Z,100033.28
2022-10-04T09:16:46.777Z,100041.63
2022-10-04T09:19:23.409Z,100043.28
2022-10-04T09:22:16.534Z,100047.75
2022-10-04T09:25:04.465Z,100057.63
2022-10-04T09:27:54.959Z,100056.06
2022-10-04T09:30:31.106Z,100057.00
2022-10-04T09:33:39.272Z,100064.13
2022-10-04T09:36:29.105Z,100062.47
2022-10-04T09:39:30.703Z,100066.06
2022-10-04T09:42:19.282Z,100062.03
2022-10-04T09:45:07.623Z,100068.59
2022-10-04T09:47:46.478Z,100069.66
2022-10-04T09:50:39.923Z,100068.91
2022-10-04T09:53:33.436Z,100070.78
2022-10-04T09:56:36.004Z,100067.38
2022-10-04T09:59:35.629Z,100063.97
2022-10-04T10:02:45.211Z,100062.28
2022-10-04T10:05:28.494Z,100065.84
2022-10-04T10:08:08.618Z,100062.34
2022-10-04T10:11:00.578Z,100057.91
2022-10-04T10:13:45.104Z,100062.44
2022-10-04T10:16:34.224Z,100054.50
2022-10-04T10:19:25.026Z,100053.56
2022-10-04T10:22:09.049Z,100052.72
2022-10-04T10:25:02.632Z,100052.66
2022-10-04T10:28:02.070Z,100056.09
2022-10-04T10:30:48.786Z,100048.19
2022-10-04T10:33:42.721Z,100058.06
2022-10-04T10:36:44.305Z,100055.53
2022-10-04T10:39:49.901Z,100053.78
2022-10-04T10:42:40.255Z,100059.06
2022-10-04T10:45:29.328Z,100053.81
2022-10-04T10:48:09.337Z,100054.72
2022-10-04T10:51:03.453Z,100051.19
2022-10-04T10:54:09.417Z,100051.16
2022-10-04T10:56:48.147Z,100053.78
2022-10-04T10:59:50.680Z,100047.63
2022-10-04T11:03:23.013Z,100043.22
2022-10-04T11:06:14.252Z,100042.34
2022-10-04T11:09:15.469Z,100045.88
2022-10-04T11:12:06.856Z,100047.59
2022-10-04T11:14:56.511Z,100044.03
2022-10-04T11:17:59.784Z,100040.47
2022-10-04T11:20:51.749Z,100036.06
2022-10-04T11:23:51.955Z,100026.31
2022-10-04T11:26:55.376Z,100035.13
2022-10-04T11:29:39.909Z,100024.47
2022-10-04T11:32:48.768Z,100014.78
2022-10-04T11:35:54.734Z,100017.38
2022-10-04T11:38:48.933Z,100018.28
2022-10-04T11:41:29.828Z,100015.56
2022-10-04T11:44:29.460Z,100014.69
2022-10-04T11:47:07.930Z,100016.38
2022-10-04T11:49:57.109Z,100019.97
2022-10-04T11:52:54.984Z,100015.56
2022-10-04T11:55:44.107Z,100007.59
2022-10-04T11:58:25.452Z,100004.84
2022-10-04T12:01:20.039Z,100000.28
2022-10-04T12:04:14.321Z,99996.66
2022-10-04T12:07:06.927Z,99997.50
2022-10-04T12:09:43.193Z,99993.09
2022-10-04T12:12:45.103Z,99989.56
2022-10-04T12:15:45.147Z,99990.41
2022-10-04T12:18:56.243Z,99986.84
2022-10-04T12:21:45.002Z,99994.00
2022-10-04T12:24:28.877Z,99992.97
2022-10-04T12:27:18.918Z,99996.47
2022-10-04T12:30:25.269Z,99981.44
2022-10-04T12:33:05.777Z,99984.25
2022-10-04T12:35:48.918Z,99976.03
2022-10-04T12:38:45.969Z,99974.09
2022-10-04T12:41:29.723Z,99973.19
2022-10-04T12:44:07.899Z,99960.66
2022-10-04T12:46:48.787Z,99968.66
2022-10-04T12:49:29.857Z,99960.78
2022-10-04T12:52:09.772Z,99950.00
2022-10-04T12:54:41.130Z,99942.72
2022-10-04T12:57:28.723Z,99947.91
2022-10-04T13:00:06.584Z,99942.72
2022-10-04T13:02:50.677Z,99942.53
2022-10-04T13:05:27.393Z,99943.34
2022-10-04T13:08:21.394Z,99934.44
2022-10-04T13:11:07.093Z,99931.59
2022-10-04T13:14:14.842Z,99925.34
2022-10-04T13:19:50.566Z,99924.63
2022-10-04T13:22:55.985Z,99921.63
2022-10-04T13:25:42.000Z,99923.38
2022-10-04T13:28:23.478Z,99920.44
2022-10-04T13:31:00.721Z,99916.81
2022-10-04T13:33:38.944Z,99911.72
2022-10-04T13:36:12.780Z,99908.13
2022-10-04T13:39:13.592Z,99905.38
2022-10-04T13:42:01.554Z,99898.72
2022-10-04T13:44:44.643Z,99899.25
2022-10-04T13:47:34.857Z,99893.56
2022-10-04T13:50:28.085Z,99900.31
2022-10-04T13:53:21.336Z,99894.00
2022-10-04T13:56:17.374Z,99903.22
2022-10-04T13:58:49.537Z,99896.88
2022-10-04T14:01:53.801Z,99906.75
2022-10-04T14:04:47.979Z,99908.44
2022-10-04T14:07:34.669Z,99904.16
2022-10-04T14:10:19.108Z,99903.91
2022-10-04T14:13:28.258Z,99904.22
2022-10-04T14:16:19.188Z,99908.25
2022-10-04T14:19:14.583Z,99906.50
2022-10-04T14:22:13.877Z,99899.22
2022-10-04T14:25:05.733Z,99899.06
2022-10-04T14:27:57.487Z,99908.22
2022-10-04T14:30:39.203Z,99899.56
2022-10-04T14:33:38.001Z,99902.00
2022-10-04T14:36:36.550Z,99899.41
2022-10-04T14:39:46.150Z,99899.13
2022-10-04T14:42:48.104Z,99900.06
2022-10-04T14:45:45.855Z,99903.84
2022-10-04T14:48:37.050Z,99905.41
2022-10-04T14:51:36.389Z,99901.94
2022-10-04T14:54:10.922Z,99901.06
2022-10-04T14:57:01.823Z,99898.47
2022-10-04T15:00:04.572Z,99901.28
2022-10-04T15:03:14.536Z,99906.50
2022-10-04T15:06:00.137Z,99905.72
2022-10-04T15:08:47.646Z,99901.00
2022-10-04T15:11:21.076Z,99901.00
2022-10-04T15:13:55.564Z,99913.56
2022-10-04T15:16:37.492Z,99915.47
2022-10-04T15:19:12.687Z,99906.69
2022-10-04T15:21:47.592Z,99912.06
2022-10-04T15:24:27.955Z,99906.66
2022-10-04T15:27:24.304Z,99913.78
2022-10-04T15:30:02.209Z,99913.09
2022-10-04T15:32:37.491Z,99914.53
2022-10-04T15:35:21.672Z,99916.53
2022-10-04T15:37:57.112Z,99916.63
2022-10-04T15:40:38.481Z,99919.25
2022-10-04T15:43:31.479Z,99925.44
2022-10-04T15:46:12.753Z,99918.66
2022-10-04T15:48:55.224Z,99921.06
2022-10-04T15:51:42.556Z,99921.78
2022-10-04T15:54:36.968Z,99920.34
2022-10-04T15:57:22.323Z,99928.19
2022-10-04T15:59:55.688Z,99931.78
2022-10-04T16:02:44.979Z,99921.88
2022-10-04T16:05:22.469Z,99925.59
2022-10-04T16:08:07.093Z,99926.63
2022-10-04T16:11:01.990Z,99931.09
2022-10-04T16:13:46.589Z,99927.63
2022-10-04T16:16:36.919Z,99932.31
2022-10-04T16:19:18.977Z,99933.41
2022-10-04T16:21:53.794Z,99925.41
2022-10-04T16:24:41.783Z,99929.09
2022-10-04T16:27:26.886Z,99931.91
2022-10-04T16:33:26.389Z,99927.69
2022-10-04T16:36:10.053Z,99933.94
2022-10-04T16:39:07.658Z,99939.47
2022-10-04T16:41:44.509Z,99937.81
2022-10-04T16:44:30.394Z,99944.97
2022-10-04T16:47:03.520Z,99948.59
2022-10-04T16:49:41.213Z,99946.91
2022-10-04T16:52:36.788Z,99959.38
2022-10-04T16:55:44.824Z,99957.66
2022-10-04T16:58:55.675Z,99959.50
2022-10-04T17:01:55.203Z,99964.91
2022-10-04T17:04:55.673Z,99968.56
2022-10-04T17:07:36.660Z,99961.50
2022-10-04T17:10:21.302Z,99960.66
2022-10-04T17:12:57.345Z,99957.19
2022-10-04T17:15:39.198Z,99967.81
2022-10-04T17:18:28.320Z,99966.97
2022-10-04T17:20:58.272Z,99961.66
2022-10-04T17:23:58.189Z,99966.16
2022-10-04T17:26:52.922Z,99966.13
2022-10-04T17:29:35.428Z,99971.50
2022-10-04T17:32:16.956Z,99974.19
2022-10-04T17:34:58.663Z,99965.31
2022-10-04T17:37:40.650Z,99969.78
2022-10-04T17:40:29.286Z,99969.78
2022-10-04T17:43:06.803Z,99965.34
2022-10-04T17:46:08.467Z,99970.56
2022-10-04T17:49:03.210Z,99969.69
2022-10-04T17:52:00.218Z,99969.59
2022-10-04T17:54:49.889Z,99967.78
2022-10-04T17:57:27.181Z,99964.22
2022-10-04T18:00:10.307Z,99970.28
2022-10-04T18:03:03.710Z,99983.50
2022-10-04T18:05:37.475Z,99978.19
2022-10-04T18:08:15.221Z,99985.16
2022-10-04T18:10:54.834Z,99987.75
2022-10-04T18:13:30.679Z,100001.81
2022-10-04T18:16:08.848Z,100000.84
2022-10-04T18:18:40.487Z,100002.56
2022-10-04T18:21:27.327Z,100008.47
2022-10-04T18:24:03.284Z,100012.84
2022-10-04T18:26:34.708Z,100001.25
2022-10-04T18:29:03.829Z,100004.72
2022-10-04T18:31:36.100Z,100012.53
2022-10-04T18:34:18.193Z,100008.91
2022-10-04T18:36:59.133Z,100001.91
2022-10-04T18:39:28.935Z,100017.72
2022-10-04T18:42:08.843Z,100012.38
2022-10-04T18:44:46.949Z,100008.66
2022-10-04T18:47:21.266Z,100012.78
2022-10-04T18:49:52.674Z,100020.66
2022-10-04T18:52:34.918Z,100019.84
2022-10-04T18:55:19.509Z,100021.53
2022-10-04T18:58:09.923Z,100021.28
2022-10-04T19:01:02.481Z,100026.28
2022-10-04T19:03:39.796Z,100029.75
2022-10-04T19:06:16.956Z,100032.50
2022-10-04T19:08:54.832Z,100039.25
2022-10-04T19:11:33.948Z,100037.28
2022-10-04T19:14:09.425Z,100041.69
2022-10-04T19:16:44.588Z,100040.09
2022-10-04T19:19:41.044Z,100041.19
2022-10-04T19:22:30.900Z,100045.75
2022-10-04T19:25:30.424Z,100050.00
2022-10-04T19:28:05.882Z,100049.19
2022-10-04T19:30:48.990Z,100057.06
2022-10-04T19:33:20.907Z,100060.41
2022-10-04T19:36:07.065Z,100055.13
2022-10-04T19:38:54.130Z,100058.69
2022-10-04T19:41:37.830Z,100047.19
2022-10-04T19:44:23.390Z,100055.09
2022-10-04T19:47:03.651Z,100059.94
2022-10-04T19:49:44.279Z,100058.84
2022-10-04T19:52:23.854Z,100063.50
2022-10-04T19:54:58.753Z,100057.31
2022-10-04T19:57:39.486Z,100075.56
2022-10-04T20:00:13.726Z,100065.09
2022-10-04T20:02:48.233Z,100067.81
2022-10-04T20:05:20.247Z,100070.41
2022-10-04T20:07:52.677Z,100070.50
2022-10-04T20:10:31.367Z,100069.56
2022-10-04T20:13:16.883Z,100071.13
2022-10-04T20:15:48.476Z,100068.50
2022-10-04T20:18:52.383Z,100068.28
2022-10-04T20:21:28.829Z,100067.34
2022-10-04T20:24:01.573Z,100077.63
2022-10-04T20:26:54.467Z,100064.28
2022-10-04T20:30:05.455Z,100068.53
2022-10-04T20:32:57.615Z,100063.75
2022-10-04T20:36:09.294Z,100073.59
2022-10-04T20:39:01.589Z,100068.69
2022-10-04T20:42:22.326Z,100080.22
2022-10-04T20:44:56.355Z,100071.53
2022-10-04T20:47:47.899Z,100074.28
2022-10-04T20:50:21.811Z,100082.13
2022-10-04T20:52:52.826Z,100074.28
2022-10-04T20:55:27.252Z,100079.44
2022-10-04T20:58:01.451Z,100079.34
2022-10-04T21:00:34.574Z,100077.31
2022-10-04T21:03:16.706Z,100087.03
2022-10-04T21:05:49.846Z,100090.69
2022-10-04T21:08:26.072Z,100092.34
2022-10-04T21:11:08.682Z,100096.69
2022-10-04T21:13:58.586Z,100087.91
2022-10-04T21:16:38.137Z,100087.66
2022-10-04T21:19:45.488Z,100084.84
2022-10-04T21:22:37.659Z,100085.59
2022-10-04T21:25:31.116Z,100084.41
2022-10-04T21:28:25.255Z,100082.75
2022-10-04T21:30:53.288Z,100076.47
2022-10-04T21:33:21.205Z,100081.06
2022-10-04T21:35:51.261Z,100075.78
2022-10-04T21:38:20.888Z,100072.22
2022-10-04T21:40:48.792Z,100070.41
2022-10-04T21:43:16.791Z,100065.78
2022-10-04T21:45:44.779Z,100071.94
2022-10-04T21:48:12.786Z,100074.25
2022-10-04T21:50:40.993Z,100068.94
2022-10-04T21:53:08.949Z,100068.94
2022-10-04T21:55:38.232Z,100073.34
2022-10-04T21:58:08.712Z,100075.72
2022-10-04T22:00:36.744Z,100075.53
2022-10-04T22:03:04.725Z,100069.56
2022-10-04T22:05:32.640Z,100073.81
2022-10-04T22:08:00.922Z,100067.50
2022-10-04T22:10:28.872Z,100070.13
2022-10-04T22:12:58.140Z,100067.44
2022-10-04T22:15:27.750Z,100064.81
2022-10-04T22:17:56.439Z,100064.81
2022-10-04T22:20:25.717Z,100053.13
2022-10-04T22:22:55.638Z,100052.03
2022-10-04T22:25:25.961Z,100039.66
2022-10-04T22:27:54.698Z,100041.47
2022-10-04T22:30:27.290Z,100042.34
2022-10-04T22:32:56.427Z,100036.78
2022-10-04T22:35:24.936Z,100035.13
2022-10-04T22:37:53.059Z,100034.09
2022-10-04T22:40:23.294Z,100029.50
2022-10-04T22:42:53.348Z,100027.81
2022-10-04T22:45:25.285Z,100025.81
2022-10-04T22:47:59.073Z,100020.22
2022-10-04T22:50:33.826Z,100019.34
2022-10-04T22:53:06.241Z,100012.09
2022-10-04T22:55:35.634Z,100010.16
2022-10-04T22:58:04.577Z,100011.22
2022-10-04T23:00:33.915Z,100005.72
2022-10-04T23:03:02.634Z,100000.94
2022-10-04T23:05:30.705Z,100006.53
2022-10-04T23:07:58.651Z,100000.69
2022-10-04T23:10:26.552Z,100006.25
2022-10-04T23:12:54.461Z,100000.38
2022-10-04T23:15:22.613Z,99994.81
2022-10-04T23:17:56.015Z,99987.88
2022-10-04T23:20:24.763Z,99987.78
2022-10-04T23:22:55.051Z,99986.59
2022-10-04T23:25:28.128Z,99983.81
2022-10-04T23:27:59.600Z,99977.84
2022-10-04T23:30:27.748Z,99974.28
2022-10-04T23:33:01.179Z,99972.88
2022-10-04T23:35:32.806Z,99970.63
2022-10-04T23:38:06.969Z,99978.81
2022-10-04T23:40:35.141Z,99969.78
2022-10-04T23:43:05.260Z,99970.91
2022-10-04T23:45:34.403Z,99970.13
2022-10-04T23:48:03.717Z,99970.59
2022-10-04T23:50:35.095Z,99970.19
2022-10-04T23:53:06.532Z,99964.31
2022-10-04T23:55:37.376Z,99956.94
2022-10-04T23:58:14.114Z,99964.22
